METAR Analyzer

一覧表示

Hello, Guest. (Login)

LTBA/ISL  -  イスタンブール・アタテュルク

観測日時
2022-09-30 05:50 (UTC) (38分前)
気温
24
露点
17
湿数
7
相対湿度
64.9%
QNH
1015hPa
推定現地気圧
1009.0hPa
推定海面気圧
1014.8hPa
体感温度
18.1
(無風時)
23.3
HI
24.2
気温前日比
±0
体感温度前日比
-0.3
HI前日比
±0
水平視程
>10000m
鉛直視程
データなし
雲底高度
No dense clouds
V/I
VMC (VFR)
RVR
No RVR data
卓越風
6kt from 170°
ガスト
No gust
降水
報告なし
その他の天気
報告なし
報告なし

LTBA 300550Z 17006KT CAVOK 24/17 Q1015 RMK RWY23 19004KT 150V230

LTFM/IST  -  イスタンブール (新)

観測日時
2022-09-30 05:50 (UTC) (38分前)
気温
23
露点
17
湿数
6
相対湿度
69%
QNH
1015hPa
推定現地気圧
1003.1hPa
推定海面気圧
1014.6hPa
体感温度
15.9
(無風時)
22.8
HI
23.2
気温前日比
±0
体感温度前日比
+0.5
HI前日比
±0
水平視程
>10000m
鉛直視程
データなし
雲底高度
No dense clouds
V/I
VMC (VFR)
RVR
No RVR data
卓越風
10kt from 190°
ガスト
No gust
降水
報告なし
その他の天気
報告なし
報告なし

LTFM 300550Z 19010KT CAVOK 23/17 Q1015 NOSIG RMK RWY17L 19015KT RWY34L 18011KT RWY16R 18012KT RWY36 19011KT RWY18 19014KT

75.1msec